createdAt,value
2023-03-06T00:02:26.426Z,7.90
2023-03-06T00:05:05.475Z,8.00
2023-03-06T00:07:41.149Z,7.90
2023-03-06T00:10:17.107Z,7.60
2023-03-06T00:12:47.442Z,8.70
2023-03-06T00:15:26.023Z,8.10
2023-03-06T00:18:04.254Z,7.90
2023-03-06T00:20:39.033Z,7.70
2023-03-06T00:23:17.549Z,7.70
2023-03-06T00:25:50.537Z,8.20
2023-03-06T00:28:25.519Z,8.10
2023-03-06T00:31:00.662Z,8.40
2023-03-06T00:33:42.737Z,8.40
2023-03-06T00:36:17.745Z,7.90
2023-03-06T00:38:55.076Z,7.90
2023-03-06T00:41:28.018Z,8.10
2023-03-06T00:44:04.793Z,8.40
2023-03-06T00:46:40.368Z,8.40
2023-03-06T00:49:17.779Z,8.10
2023-03-06T00:51:53.480Z,8.50
2023-03-06T00:54:25.046Z,8.20
2023-03-06T00:57:00.172Z,8.70
2023-03-06T00:59:40.171Z,8.60
2023-03-06T01:02:20.406Z,8.20
2023-03-06T01:04:55.468Z,8.80
2023-03-06T01:07:26.707Z,8.40
2023-03-06T01:10:01.188Z,8.30
2023-03-06T01:12:36.164Z,8.80
2023-03-06T01:15:11.773Z,8.20
2023-03-06T01:17:53.193Z,8.40
2023-03-06T01:20:30.738Z,9.00
2023-03-06T01:23:06.287Z,8.60
2023-03-06T01:25:42.192Z,8.30
2023-03-06T01:28:12.528Z,8.20
2023-03-06T01:30:44.130Z,8.60
2023-03-06T01:33:17.628Z,8.60
2023-03-06T01:35:47.965Z,8.00
2023-03-06T01:38:18.748Z,8.20
2023-03-06T01:40:51.953Z,8.50
2023-03-06T01:43:31.846Z,8.60
2023-03-06T01:46:34.696Z,8.30
2023-03-06T01:49:12.153Z,8.50
2023-03-06T01:51:49.858Z,8.10
2023-03-06T01:54:28.722Z,8.50
2023-03-06T01:57:06.682Z,8.80
2023-03-06T01:59:43.464Z,8.20
2023-03-06T02:02:15.798Z,8.20
2023-03-06T02:04:47.224Z,8.00
2023-03-06T02:07:19.921Z,8.10
2023-03-06T02:09:54.848Z,8.30
2023-03-06T02:12:28.348Z,8.80
2023-03-06T02:15:00.645Z,8.20
2023-03-06T02:17:32.074Z,8.60
2023-03-06T02:20:18.585Z,8.00
2023-03-06T02:23:01.854Z,8.20
2023-03-06T02:25:38.279Z,8.20
2023-03-06T02:28:21.849Z,8.30
2023-03-06T02:30:54.863Z,8.60
2023-03-06T02:33:29.413Z,8.60
2023-03-06T02:36:04.037Z,8.30
2023-03-06T02:38:47.571Z,8.70
2023-03-06T02:41:25.266Z,8.30
2023-03-06T02:44:03.848Z,8.10
2023-03-06T02:46:43.400Z,8.50
2023-03-06T02:49:21.847Z,8.30
2023-03-06T02:51:53.863Z,8.00
2023-03-06T02:54:28.942Z,8.10
2023-03-06T02:56:59.365Z,8.70
2023-03-06T02:59:31.685Z,8.30
2023-03-06T03:02:04.651Z,8.20
2023-03-06T03:04:37.571Z,8.90
2023-03-06T03:07:08.229Z,8.90
2023-03-06T03:09:38.792Z,8.50
2023-03-06T03:12:12.537Z,8.70
2023-03-06T03:14:47.541Z,8.20
2023-03-06T03:17:22.068Z,8.40
2023-03-06T03:19:54.788Z,8.60
2023-03-06T03:22:29.617Z,8.10
2023-03-06T03:25:05.172Z,8.50
2023-03-06T03:27:38.457Z,8.10
2023-03-06T03:30:13.780Z,8.30
2023-03-06T03:32:48.835Z,8.10
2023-03-06T03:35:24.933Z,7.70
2023-03-06T03:37:59.272Z,7.90
2023-03-06T03:40:32.664Z,8.20
2023-03-06T03:43:05.502Z,7.70
2023-03-06T03:45:41.098Z,8.40
2023-03-06T03:48:11.204Z,7.80
2023-03-06T03:50:46.161Z,8.20
2023-03-06T03:53:18.384Z,8.00
2023-03-06T03:55:50.727Z,7.80
2023-03-06T03:58:20.776Z,7.90
2023-03-06T04:00:59.195Z,7.70
2023-03-06T04:03:33.249Z,8.20
2023-03-06T04:06:06.092Z,7.60
2023-03-06T04:08:41.941Z,8.10
2023-03-06T04:11:20.305Z,8.20
2023-03-06T04:13:57.749Z,7.80
2023-03-06T04:16:38.610Z,7.70
2023-03-06T04:19:16.438Z,7.80
2023-03-06T04:21:54.316Z,7.50
2023-03-06T04:24:27.660Z,7.60
2023-03-06T04:27:06.854Z,7.60
2023-03-06T04:29:37.275Z,7.50
2023-03-06T04:32:17.341Z,8.10
2023-03-06T04:34:53.566Z,7.60
2023-03-06T04:37:32.823Z,7.20
2023-03-06T04:40:09.048Z,7.70
2023-03-06T04:42:47.396Z,7.30
2023-03-06T04:45:22.321Z,7.40
2023-03-06T04:48:00.243Z,7.50
2023-03-06T04:50:32.768Z,7.30
2023-03-06T04:53:08.355Z,7.40
2023-03-06T04:55:43.634Z,7.60
2023-03-06T04:58:15.230Z,7.20
2023-03-06T05:00:48.004Z,7.20
2023-03-06T05:03:17.819Z,7.60
2023-03-06T05:05:52.304Z,7.70
2023-03-06T05:08:27.473Z,7.40
2023-03-06T05:11:02.048Z,7.50
2023-03-06T05:13:32.634Z,7.30
2023-03-06T05:16:19.987Z,7.30
2023-03-06T05:18:52.830Z,7.30
2023-03-06T05:21:26.477Z,7.20
2023-03-06T05:24:04.179Z,7.10
2023-03-06T05:26:39.879Z,7.20
2023-03-06T05:29:13.388Z,7.30
2023-03-06T05:31:49.534Z,7.00
2023-03-06T05:34:30.408Z,7.40
2023-03-06T05:37:06.175Z,7.20
2023-03-06T05:39:38.652Z,7.10
2023-03-06T05:42:14.497Z,7.00
2023-03-06T05:44:45.091Z,7.30
2023-03-06T05:47:17.668Z,6.90
2023-03-06T05:50:02.114Z,7.20
2023-03-06T05:52:35.056Z,6.90
2023-03-06T05:55:07.761Z,7.10
2023-03-06T05:57:39.898Z,6.90
2023-03-06T06:00:15.348Z,7.20
2023-03-06T06:02:45.823Z,7.20
2023-03-06T06:05:18.649Z,7.60
2023-03-06T06:07:53.350Z,7.30
2023-03-06T06:10:25.310Z,7.10
2023-03-06T06:13:01.373Z,7.00
2023-03-06T06:15:37.193Z,7.30
2023-03-06T06:18:18.088Z,6.80
2023-03-06T06:20:48.241Z,7.30
2023-03-06T06:23:21.237Z,7.50
2023-03-06T06:25:58.904Z,7.00
2023-03-06T06:28:31.836Z,7.20
2023-03-06T06:31:14.551Z,7.10
2023-03-06T06:33:49.789Z,7.00
2023-03-06T06:36:26.133Z,7.40
2023-03-06T06:38:58.580Z,6.80
2023-03-06T06:41:52.914Z,7.20
2023-03-06T06:44:29.381Z,6.70
2023-03-06T06:47:22.755Z,6.80
2023-03-06T06:49:57.676Z,7.20
2023-03-06T06:52:34.412Z,7.30
2023-03-06T06:55:05.329Z,7.20
2023-03-06T06:57:37.352Z,7.20
2023-03-06T07:02:42.010Z,7.00
2023-03-06T07:05:22.252Z,7.00
2023-03-06T07:07:54.394Z,7.40
2023-03-06T07:10:28.251Z,6.60
2023-03-06T07:12:58.985Z,6.90
2023-03-06T07:15:36.572Z,7.40
2023-03-06T07:18:11.624Z,6.70
2023-03-06T07:20:46.857Z,7.70
2023-03-06T07:23:18.551Z,7.00
2023-03-06T07:26:01.062Z,7.20
2023-03-06T07:28:52.429Z,6.80
2023-03-06T07:31:27.892Z,7.30
2023-03-06T07:33:58.660Z,7.30
2023-03-06T07:36:29.128Z,7.20
2023-03-06T07:39:04.731Z,7.80
2023-03-06T07:41:35.367Z,7.30
2023-03-06T07:44:07.722Z,7.40
2023-03-06T07:46:38.088Z,7.10
2023-03-06T07:49:16.462Z,7.80
2023-03-06T07:51:51.470Z,7.40
2023-03-06T07:54:26.414Z,8.00
2023-03-06T07:57:01.852Z,7.70
2023-03-06T07:59:37.967Z,7.40
2023-03-06T08:02:12.668Z,7.30
2023-03-06T08:04:42.570Z,7.90
2023-03-06T08:07:12.825Z,8.20
2023-03-06T08:09:42.135Z,7.50
2023-03-06T08:12:12.120Z,7.80
2023-03-06T08:14:41.662Z,8.00
2023-03-06T08:17:11.278Z,8.50
2023-03-06T08:19:41.269Z,8.20
2023-03-06T08:22:13.465Z,8.30
2023-03-06T08:24:42.988Z,8.30
2023-03-06T08:27:18.470Z,8.10
2023-03-06T08:29:48.810Z,7.90
2023-03-06T08:32:26.442Z,8.00
2023-03-06T08:34:58.710Z,8.00
2023-03-06T08:37:28.765Z,8.40
2023-03-06T08:42:33.445Z,7.70
2023-03-06T08:45:07.293Z,8.00
2023-03-06T08:47:41.126Z,7.80
2023-03-06T08:50:15.211Z,7.20
2023-03-06T08:52:44.664Z,7.90
2023-03-06T08:55:16.991Z,7.80
2023-03-06T08:57:53.063Z,8.00
2023-03-06T09:00:25.762Z,7.80
2023-03-06T09:03:00.112Z,7.80
2023-03-06T09:05:32.974Z,7.90
2023-03-06T09:08:04.836Z,7.70
2023-03-06T09:10:51.708Z,8.20
2023-03-06T09:13:26.933Z,7.60
2023-03-06T09:15:57.764Z,7.50
2023-03-06T09:18:28.795Z,7.40
2023-03-06T09:21:05.256Z,7.60
2023-03-06T09:23:41.969Z,7.40
2023-03-06T09:26:19.458Z,7.40
2023-03-06T09:28:51.448Z,7.50
2023-03-06T09:31:24.184Z,6.80
2023-03-06T09:33:53.760Z,7.20
2023-03-06T09:36:27.104Z,6.70
2023-03-06T09:39:02.092Z,6.60
2023-03-06T09:41:37.221Z,6.90
2023-03-06T09:44:15.210Z,6.90
2023-03-06T09:47:03.364Z,6.90
2023-03-06T09:49:50.942Z,6.60
2023-03-06T09:52:34.306Z,6.50
2023-03-06T09:55:14.554Z,6.40
2023-03-06T09:57:53.618Z,6.80
2023-03-06T10:00:30.421Z,6.30
2023-03-06T10:03:18.505Z,6.30
2023-03-06T10:06:02.422Z,6.30
2023-03-06T10:08:47.524Z,6.10
2023-03-06T10:11:26.781Z,5.90
2023-03-06T10:14:20.192Z,6.30
2023-03-06T10:16:52.104Z,5.90
2023-03-06T10:19:30.609Z,6.10
2023-03-06T10:22:04.675Z,6.30
2023-03-06T10:24:52.971Z,5.50
2023-03-06T10:27:37.366Z,5.90
2023-03-06T10:30:27.910Z,5.70
2023-03-06T10:33:00.561Z,5.60
2023-03-06T10:35:48.218Z,5.00
2023-03-06T10:38:27.857Z,5.40
2023-03-06T10:41:19.834Z,5.20
2023-03-06T10:44:21.247Z,5.10
2023-03-06T10:46:53.744Z,5.40
2023-03-06T10:49:36.165Z,5.20
2023-03-06T10:52:19.760Z,5.20
2023-03-06T10:54:50.008Z,4.90
2023-03-06T10:57:31.226Z,5.00
2023-03-06T11:00:05.534Z,5.20
2023-03-06T11:02:43.400Z,4.70
2023-03-06T11:05:21.328Z,4.90
2023-03-06T11:08:01.201Z,4.70
2023-03-06T11:10:36.934Z,4.60
2023-03-06T11:13:22.477Z,4.70
2023-03-06T11:16:01.567Z,4.40
2023-03-06T11:18:37.050Z,4.80
2023-03-06T11:21:31.285Z,4.80
2023-03-06T11:24:13.833Z,4.50
2023-03-06T11:26:54.031Z,4.30
2023-03-06T11:29:42.972Z,4.50
2023-03-06T11:32:23.478Z,4.30
2023-03-06T11:35:01.894Z,4.60
2023-03-06T11:37:50.860Z,4.50
2023-03-06T11:40:28.001Z,4.70
2023-03-06T11:43:06.762Z,4.50
2023-03-06T11:45:46.562Z,4.50
2023-03-06T11:48:27.487Z,4.50
2023-03-06T11:51:06.580Z,4.70
2023-03-06T11:53:42.257Z,4.40
2023-03-06T11:56:33.573Z,4.80
2023-03-06T11:59:37.101Z,4.30
2023-03-06T12:02:25.642Z,4.50
2023-03-06T12:05:26.400Z,4.70
2023-03-06T12:08:15.641Z,4.60
2023-03-06T12:10:59.801Z,4.80
2023-03-06T12:16:34.967Z,4.30
2023-03-06T12:19:19.832Z,4.10
2023-03-06T12:22:14.870Z,4.20
2023-03-06T12:25:30.379Z,4.00
2023-03-06T12:28:30.400Z,4.30
2023-03-06T12:31:35.597Z,4.30
2023-03-06T12:34:28.457Z,4.10
2023-03-06T12:37:16.789Z,4.00
2023-03-06T12:40:10.622Z,4.00
2023-03-06T12:43:04.192Z,3.70
2023-03-06T12:45:36.441Z,3.60
2023-03-06T12:48:20.746Z,3.80
2023-03-06T12:50:54.266Z,3.90
2023-03-06T12:53:30.292Z,4.00
2023-03-06T12:56:03.239Z,3.90
2023-03-06T12:58:52.609Z,3.80
2023-03-06T13:01:54.557Z,3.70
2023-03-06T13:04:51.219Z,3.70
2023-03-06T13:07:36.056Z,3.60
2023-03-06T13:10:27.040Z,3.70
2023-03-06T13:13:00.701Z,3.90
2023-03-06T13:15:40.613Z,4.30
2023-03-06T13:19:04.283Z,4.00
2023-03-06T13:22:03.772Z,3.90
2023-03-06T13:24:37.371Z,3.90
2023-03-06T13:27:11.104Z,4.00
2023-03-06T13:30:23.055Z,4.30
2023-03-06T13:32:58.627Z,4.10
2023-03-06T13:36:00.741Z,4.40
2023-03-06T13:38:38.060Z,4.00
2023-03-06T13:41:46.392Z,4.20
2023-03-06T13:44:43.406Z,4.50
2023-03-06T13:47:55.759Z,4.30
2023-03-06T13:50:44.528Z,4.00
2023-03-06T13:53:43.974Z,4.30
2023-03-06T13:56:55.934Z,4.50
2023-03-06T14:00:18.767Z,4.40
2023-03-06T14:03:33.959Z,5.20
2023-03-06T14:06:48.732Z,4.40
2023-03-06T14:09:37.324Z,4.60
2023-03-06T14:12:18.401Z,4.80
2023-03-06T14:14:54.280Z,4.90
2023-03-06T14:17:30.017Z,5.20
2023-03-06T14:20:13.908Z,4.70
2023-03-06T14:22:47.886Z,5.00
2023-03-06T14:25:23.836Z,4.80
2023-03-06T14:27:58.140Z,4.70
2023-03-06T14:30:29.610Z,5.00
2023-03-06T14:32:59.470Z,4.90
2023-03-06T14:35:33.734Z,5.00
2023-03-06T14:38:05.829Z,5.10
2023-03-06T14:40:41.674Z,4.50
2023-03-06T14:43:21.851Z,5.00
2023-03-06T14:46:00.130Z,4.90
2023-03-06T14:48:43.624Z,5.40
2023-03-06T14:51:18.014Z,5.20
2023-03-06T14:53:50.066Z,5.10
2023-03-06T14:56:22.432Z,5.00
2023-03-06T14:58:59.537Z,5.00
2023-03-06T15:01:34.582Z,5.00
2023-03-06T15:04:17.136Z,4.90
2023-03-06T15:06:47.524Z,4.80
2023-03-06T15:09:23.598Z,4.90
2023-03-06T15:11:56.849Z,4.70
2023-03-06T15:14:36.411Z,5.30
2023-03-06T15:17:39.646Z,5.10
2023-03-06T15:20:43.347Z,4.90
2023-03-06T15:23:24.393Z,5.20
2023-03-06T15:25:59.828Z,5.30
2023-03-06T15:28:40.149Z,5.00
2023-03-06T15:31:25.613Z,5.20
2023-03-06T15:34:23.176Z,5.30
2023-03-06T15:36:57.705Z,4.80
2023-03-06T15:39:34.986Z,5.00
2023-03-06T15:42:17.394Z,5.40
2023-03-06T15:45:02.646Z,5.20
2023-03-06T15:47:37.778Z,5.20
2023-03-06T15:50:16.830Z,5.40
2023-03-06T15:52:50.756Z,5.40
2023-03-06T15:55:27.758Z,5.60
2023-03-06T15:58:05.115Z,5.60
2023-03-06T16:00:38.412Z,5.50
2023-03-06T16:03:13.480Z,5.90
2023-03-06T16:05:46.166Z,5.40
2023-03-06T16:08:16.589Z,5.40
2023-03-06T16:10:51.329Z,5.70
2023-03-06T16:13:26.909Z,5.50
2023-03-06T16:16:01.244Z,5.50
2023-03-06T16:18:31.209Z,5.70
2023-03-06T16:21:00.748Z,6.00
2023-03-06T16:23:30.079Z,6.10
2023-03-06T16:25:59.657Z,6.00
2023-03-06T16:28:29.958Z,5.80
2023-03-06T16:30:59.720Z,6.30
2023-03-06T16:33:31.694Z,6.20
2023-03-06T16:36:01.944Z,6.30
2023-03-06T16:38:31.264Z,5.90
2023-03-06T16:41:00.480Z,6.10
2023-03-06T16:43:29.859Z,6.20
2023-03-06T16:45:59.408Z,5.60
2023-03-06T16:48:28.918Z,5.70
2023-03-06T16:50:58.175Z,5.90
2023-03-06T16:53:27.778Z,6.00
2023-03-06T16:55:59.540Z,6.40
2023-03-06T16:58:28.782Z,6.00
2023-03-06T17:01:01.426Z,6.00
2023-03-06T17:03:31.141Z,6.20
2023-03-06T17:06:03.565Z,6.20
2023-03-06T17:08:35.422Z,6.20
2023-03-06T17:13:36.197Z,6.60
2023-03-06T17:16:08.678Z,6.60
2023-03-06T17:18:37.964Z,6.60
2023-03-06T17:21:09.867Z,6.80
2023-03-06T17:23:39.419Z,6.90
2023-03-06T17:26:14.038Z,6.90
2023-03-06T17:28:44.671Z,7.40
2023-03-06T17:31:19.158Z,7.00
2023-03-06T17:33:51.286Z,7.20
2023-03-06T17:36:20.579Z,7.20
2023-03-06T17:38:50.631Z,7.10
2023-03-06T17:41:23.802Z,7.00
2023-03-06T17:43:58.747Z,7.30
2023-03-06T17:46:28.468Z,7.50
2023-03-06T17:49:02.599Z,7.30
2023-03-06T17:51:32.100Z,7.30
2023-03-06T17:54:01.380Z,7.40
2023-03-06T17:56:30.922Z,7.80
2023-03-06T17:59:00.153Z,7.60
2023-03-06T18:01:29.952Z,7.60
2023-03-06T18:04:01.454Z,7.80
2023-03-06T18:06:32.816Z,7.60
2023-03-06T18:09:03.066Z,8.20
2023-03-06T18:11:33.160Z,8.50
2023-03-06T18:14:05.474Z,8.50
2023-03-06T18:16:36.367Z,9.10
2023-03-06T18:19:08.703Z,8.90
2023-03-06T18:21:41.600Z,8.50
2023-03-06T18:24:12.620Z,8.90
2023-03-06T18:26:49.307Z,8.60
2023-03-06T18:29:21.690Z,8.90
2023-03-06T18:31:55.784Z,8.70
2023-03-06T18:34:28.846Z,9.10
2023-03-06T18:36:59.324Z,9.00
2023-03-06T18:39:29.252Z,8.80
2023-03-06T18:41:58.929Z,8.70
2023-03-06T18:44:30.831Z,8.70
2023-03-06T18:47:00.385Z,8.70
2023-03-06T18:49:32.813Z,9.00
2023-03-06T18:52:04.121Z,9.60
2023-03-06T18:54:41.813Z,9.40
2023-03-06T18:57:17.259Z,9.30
2023-03-06T18:59:50.150Z,9.30
2023-03-06T19:02:26.052Z,9.30
2023-03-06T19:04:59.868Z,9.00
2023-03-06T19:07:37.532Z,9.00
2023-03-06T19:10:12.652Z,9.40
2023-03-06T19:12:43.193Z,8.90
2023-03-06T19:15:17.959Z,8.90
2023-03-06T19:17:54.072Z,9.30
2023-03-06T19:20:32.942Z,9.30
2023-03-06T19:23:11.116Z,9.00
2023-03-06T19:25:57.406Z,9.80
2023-03-06T19:28:28.388Z,9.20
2023-03-06T19:31:02.438Z,9.00
2023-03-06T19:33:37.095Z,9.30
2023-03-06T19:36:12.343Z,9.10
2023-03-06T19:38:43.115Z,9.30
2023-03-06T19:41:17.230Z,8.50
2023-03-06T19:43:53.853Z,8.90
2023-03-06T19:46:27.774Z,9.00
2023-03-06T19:49:11.402Z,9.20
2023-03-06T19:51:44.130Z,9.20
2023-03-06T19:54:17.017Z,8.90
2023-03-06T19:56:57.119Z,9.10
2023-03-06T19:59:27.706Z,9.40
2023-03-06T20:02:02.484Z,8.30
2023-03-06T20:04:36.002Z,9.20
2023-03-06T20:07:11.944Z,8.70
2023-03-06T20:09:42.683Z,8.80
2023-03-06T20:12:16.026Z,9.10
2023-03-06T20:14:46.095Z,8.70
2023-03-06T20:17:21.544Z,8.70
2023-03-06T20:19:51.660Z,9.10
2023-03-06T20:22:21.732Z,8.60
2023-03-06T20:24:56.115Z,9.20
2023-03-06T20:27:28.993Z,8.50
2023-03-06T20:30:08.045Z,8.30
2023-03-06T20:32:47.511Z,8.30
2023-03-06T20:35:23.464Z,9.00
2023-03-06T20:37:56.245Z,7.80
2023-03-06T20:40:32.127Z,8.50
2023-03-06T20:43:10.259Z,7.90
2023-03-06T20:45:40.908Z,8.10
2023-03-06T20:48:11.596Z,7.90
2023-03-06T20:50:41.964Z,7.70
2023-03-06T20:53:21.963Z,7.40
2023-03-06T20:55:55.272Z,7.10
2023-03-06T20:58:31.962Z,7.30
2023-03-06T21:01:02.530Z,7.30
2023-03-06T21:03:38.732Z,7.40
2023-03-06T21:06:11.058Z,7.50
2023-03-06T21:08:42.964Z,7.90
2023-03-06T21:11:16.174Z,6.90
2023-03-06T21:13:52.348Z,6.60
2023-03-06T21:16:28.598Z,7.50
2023-03-06T21:19:03.016Z,7.00
2023-03-06T21:21:39.296Z,6.70
2023-03-06T21:24:12.982Z,7.00
2023-03-06T21:26:48.221Z,6.80
2023-03-06T21:29:27.353Z,6.90
2023-03-06T21:32:04.321Z,6.50
2023-03-06T21:34:37.613Z,6.70
2023-03-06T21:37:10.057Z,6.30
2023-03-06T21:39:40.482Z,6.90
2023-03-06T21:42:10.508Z,6.30
2023-03-06T21:44:43.194Z,6.40
2023-03-06T21:47:14.545Z,6.90
2023-03-06T21:49:48.968Z,6.40
2023-03-06T21:52:23.329Z,6.60
2023-03-06T21:54:55.146Z,6.40
2023-03-06T21:57:27.474Z,7.00
2023-03-06T22:00:08.395Z,6.50
2023-03-06T22:02:40.669Z,6.80
2023-03-06T22:05:17.189Z,6.60
2023-03-06T22:07:50.398Z,6.70
2023-03-06T22:10:25.262Z,6.80
2023-03-06T22:13:00.981Z,6.80
2023-03-06T22:15:31.400Z,6.70
2023-03-06T22:18:07.413Z,6.50
2023-03-06T22:20:47.196Z,6.50
2023-03-06T22:23:22.392Z,6.40
2023-03-06T22:25:54.604Z,6.40
2023-03-06T22:28:29.656Z,6.70
2023-03-06T22:31:10.084Z,6.50
2023-03-06T22:33:40.531Z,6.60
2023-03-06T22:36:14.511Z,6.50
2023-03-06T22:38:49.232Z,6.80
2023-03-06T22:41:25.332Z,6.60
2023-03-06T22:44:03.402Z,6.40
2023-03-06T22:46:40.018Z,6.90
2023-03-06T22:49:19.465Z,6.50
2023-03-06T22:51:51.632Z,6.50
2023-03-06T22:54:23.999Z,7.10
2023-03-06T22:56:56.720Z,7.20
2023-03-06T22:59:30.021Z,7.20
2023-03-06T23:01:59.590Z,7.10
2023-03-06T23:04:32.416Z,7.30
2023-03-06T23:07:04.636Z,7.40
2023-03-06T23:09:34.451Z,7.20
2023-03-06T23:12:10.927Z,7.10
2023-03-06T23:14:41.088Z,7.60
2023-03-06T23:17:14.042Z,7.60
2023-03-06T23:19:43.407Z,8.30
2023-03-06T23:22:13.694Z,8.50
2023-03-06T23:24:43.760Z,8.30
2023-03-06T23:27:16.339Z,8.70
2023-03-06T23:29:49.747Z,9.20
2023-03-06T23:32:24.720Z,9.50
2023-03-06T23:34:55.310Z,9.40
2023-03-06T23:37:37.133Z,9.50
2023-03-06T23:40:14.781Z,9.90
2023-03-06T23:42:44.857Z,10.20
2023-03-06T23:45:16.838Z,10.10
2023-03-06T23:47:49.662Z,9.70
2023-03-06T23:50:19.777Z,10.80
2023-03-06T23:52:53.059Z,10.20
2023-03-06T23:55:25.290Z,10.40
2023-03-06T23:57:55.159Z,10.50
